Time;durP1;ratioP1;P1;durP2;ratioP2;P2;SDS_P1;SDS_P2;PMS_P1;PMS_P2;Temp;Humidity;BMP_temperature;BMP_pressure;BME280_temperature;BME280_humidity;BME280_pressure;Samples;Min_cycle;Max_cycle;Signal;HPM_P1;HPM_P2
2021/12/24 00:00:10;;;;;;;1021.17;950.72;;;;;;;2.31;73.56;99505.03;691508;28;45617;-67
2021/12/24 00:00:31;;;;;;;1028.53;957.83;;;;;;;2.32;73.64;99509.38;692873;28;1508;-67
2021/12/24 00:00:53;;;;;;;1025.38;954.78;;;;;;;2.32;73.69;99511.19;692110;28;22411;-66
2021/12/24 00:01:16;;;;;;;1028.82;958.10;;;;;;;2.33;73.60;99507.53;690732;28;67429;-66
2021/12/24 00:01:38;;;;;;;1034.15;963.25;;;;;;;2.31;73.70;99507.69;690403;28;69316;-66
2021/12/24 00:01:59;;;;;;;1020.70;950.33;;;;;;;2.29;73.77;99498.22;692151;28;22365;-67
2021/12/24 00:02:21;;;;;;;1024.57;954.08;;;;;;;2.34;73.54;99509.22;692385;28;22207;-66
2021/12/24 00:02:42;;;;;;;1028.75;958.05;;;;;;;2.33;73.43;99505.72;690710;28;44327;-67
2021/12/24 00:03:03;;;;;;;1028.57;957.97;;;;;;;2.29;73.45;99488.38;692464;28;21536;-67
2021/12/24 00:03:24;;;;;;;1031.45;960.78;;;;;;;2.29;73.65;99496.38;692348;28;24615;-66
2021/12/24 00:03:46;;;;;;;1019.63;949.33;;;;;;;2.33;73.74;99503.03;691991;28;22396;-67
2021/12/24 00:04:09;;;;;;;1020.65;950.33;;;;;;;2.34;73.76;99501.22;690992;28;69290;-67
2021/12/24 00:04:30;;;;;;;1018.42;948.13;;;;;;;2.34;73.68;99510.06;691677;28;45245;-66
2021/12/24 00:04:51;;;;;;;1017.88;947.63;;;;;;;2.36;73.86;99506.41;691944;28;21560;-66
2021/12/24 00:05:13;;;;;;;1017.92;947.72;;;;;;;2.34;73.77;99504.72;692505;28;22403;-67
2021/12/24 00:05:35;;;;;;;1022.42;951.92;;;;;;;2.36;73.81;99501.09;690639;28;67241;-66
2021/12/24 00:05:56;;;;;;;1030.45;959.60;;;;;;;2.37;73.68;99497.41;692441;28;22380;-66
2021/12/24 00:06:17;;;;;;;1031.45;960.72;;;;;;;2.36;73.63;99501.91;692238;28;21395;-67
2021/12/24 00:06:39;;;;;;;1022.03;951.53;;;;;;;2.38;73.54;99499.09;691510;28;44352;-67
2021/12/24 00:07:01;;;;;;;1017.03;946.70;;;;;;;2.38;73.69;99499.91;691038;28;46273;-67
2021/12/24 00:07:22;;;;;;;1023.40;952.95;;;;;;;2.37;73.88;99500.06;691901;28;21387;-66
2021/12/24 00:07:43;;;;;;;1028.85;958.10;;;;;;;2.35;73.92;99494.91;690387;28;22292;-67
2021/12/24 00:08:06;;;;;;;1019.53;949.13;;;;;;;2.37;73.67;99502.72;691787;28;22381;-67
2021/12/24 00:08:27;;;;;;;1030.50;959.72;;;;;;;2.39;73.65;99506.09;690716;28;70300;-66
2021/12/24 00:08:48;;;;;;;1024.82;954.22;;;;;;;2.37;73.52;99495.59;692198;28;22429;-67
2021/12/24 00:09:09;;;;;;;1014.78;944.60;;;;;;;2.38;73.74;99499.91;691451;28;44388;-67
2021/12/24 00:09:33;;;;;;;1011.63;941.63;;;;;;;2.40;73.73;99500.63;692287;28;21518;-66
2021/12/24 00:09:54;;;;;;;1021.85;951.38;;;;;;;2.41;73.35;99499.59;689639;28;93113;-67
2021/12/24 00:10:15;;;;;;;1018.90;948.55;;;;;;;2.42;73.36;99497.81;691499;28;22338;-67
2021/12/24 00:10:40;;;;;;;1019.58;949.13;;;;;;;2.41;73.27;99501.44;690259;28;69471;-67
2021/12/24 00:11:04;;;;;;;1021.08;950.55;;;;;;;2.42;73.55;99503.97;690635;28;68318;-66
2021/12/24 00:11:25;;;;;;;1017.75;947.42;;;;;;;2.42;73.65;99500.47;692656;28;15053;-66
2021/12/24 00:11:47;;;;;;;1026.40;955.78;;;;;;;2.42;73.61;99501.28;691735;28;21640;-66
2021/12/24 00:12:14;;;;;;;1031.78;960.90;;;;;;;2.42;73.73;99498.63;691547;28;46301;-66
2021/12/24 00:12:41;;;;;;;1016.70;946.55;;;;;;;2.40;73.65;99492.63;688531;28;127239;-67
2021/12/24 00:13:07;;;;;;;1025.82;955.28;;;;;;;2.43;73.71;99504.78;686634;28;157793;-67
2021/12/24 00:13:36;;;;;;;1026.85;956.15;;;;;;;2.43;73.63;99497.66;688207;28;136411;-67
2021/12/24 00:13:59;;;;;;;1028.93;958.13;;;;;;;2.43;73.47;99497.66;688213;28;138529;-66
2021/12/24 00:14:22;;;;;;;1021.28;950.92;;;;;;;2.43;73.50;99500.31;690556;28;69349;-66
2021/12/24 00:14:49;;;;;;;1023.17;952.80;;;;;;;2.43;73.46;99502.97;690398;28;69441;-67
2021/12/24 00:15:29;;;;;;;1015.70;945.47;;;;;;;2.44;73.55;99499.31;688077;28;137906;-67
2021/12/24 00:15:56;;;;;;;1017.25;947.13;;;;;;;2.44;73.42;99493.97;687499;28;159255;-66
2021/12/24 00:16:23;;;;;;;1021.38;950.95;;;;;;;2.45;73.46;99497.50;687670;28;160848;-66
2021/12/24 00:16:49;;;;;;;1024.65;954.25;;;;;;;2.43;73.67;99496.78;687205;28;160923;-66
2021/12/24 00:17:14;;;;;;;1025.72;955.08;;;;;;;2.44;73.60;99501.97;688538;28;136408;-66
2021/12/24 00:17:37;;;;;;;1036.32;965.30;;;;;;;2.41;73.61;99490.78;688242;28;115379;-66
2021/12/24 00:18:06;;;;;;;1017.00;946.58;;;;;;;2.45;73.59;99500.16;688767;28;88122;-66
2021/12/24 00:18:38;;;;;;;1019.50;949.22;;;;;;;2.44;73.84;99493.97;690803;28;58734;-66
2021/12/24 00:19:12;;;;;;;1019.22;948.80;;;;;;;2.45;73.53;99494.81;688260;28;138498;-66
2021/12/24 00:19:41;;;;;;;1029.93;959.22;;;;;;;2.44;73.64;99495.81;690537;28;73968;-66
2021/12/24 00:20:28;;;;;;;1017.65;947.33;;;;;;;2.46;73.27;99497.34;688161;28;137633;-65
2021/12/24 00:22:23;;;;;;;1025.18;954.67;;;;;;;2.47;73.38;99498.16;689592;28;90723;-67
2021/12/24 00:23:22;;;;;;;1020.92;950.50;;;;;;;2.44;73.62;99498.47;687344;28;137444;-66
2021/12/24 00:35:14;;;;;;;1037.97;966.80;;;;;;;2.48;73.47;99479.34;672495;29;162320;-67
2021/12/24 00:35:35;;;;;;;1026.50;955.83;;;;;;;2.48;73.66;99490.00;675391;29;136013;-67
2021/12/24 00:35:57;;;;;;;1026.57;955.92;;;;;;;2.47;73.66;99485.66;679940;29;22389;-65
2021/12/24 00:36:18;;;;;;;1030.90;960.08;;;;;;;2.48;73.65;99484.69;681521;28;21508;-66
2021/12/24 00:36:39;;;;;;;1027.82;957.22;;;;;;;2.49;73.71;99482.84;681057;29;23524;-66
2021/12/24 00:37:01;;;;;;;1021.78;951.28;;;;;;;2.48;73.89;99476.69;675832;29;46579;-66
2021/12/24 00:37:22;;;;;;;1019.55;949.20;;;;;;;2.48;73.86;99482.00;676780;29;1518;-66
2021/12/24 00:37:46;;;;;;;1026.63;955.80;;;;;;;2.47;73.63;99485.66;674328;29;22397;-66
2021/12/24 00:38:10;;;;;;;1025.03;954.22;;;;;;;2.49;73.76;99481.03;670181;29;94347;-65
2021/12/24 00:38:31;;;;;;;1025.18;954.55;;;;;;;2.48;73.81;99479.34;669750;29;93218;-65
2021/12/24 00:38:52;;;;;;;1032.50;961.60;;;;;;;2.48;74.02;99478.53;674764;29;24049;-66
2021/12/24 00:39:13;;;;;;;1028.45;957.80;;;;;;;2.48;73.90;99474.03;678524;29;22370;-66
2021/12/24 00:39:40;;;;;;;1020.90;950.50;;;;;;;2.48;73.97;99474.03;679821;29;16367;-66
2021/12/24 00:40:11;;;;;;;1029.97;959.20;;;;;;;2.49;73.68;99482.84;677158;29;60733;-66
2021/12/24 00:40:35;;;;;;;1034.10;963.13;;;;;;;2.49;73.68;99475.72;686964;28;137410;-66
2021/12/24 00:40:56;;;;;;;1028.95;958.22;;;;;;;2.48;73.85;99473.19;691323;28;82494;-66
2021/12/24 00:41:18;;;;;;;1030.55;959.75;;;;;;;2.48;73.71;99478.53;691080;28;23591;-65
2021/12/24 00:41:41;;;;;;;1028.93;958.22;;;;;;;2.49;73.80;99485.50;687696;28;44310;-67
2021/12/24 00:42:03;;;;;;;1027.78;957.15;;;;;;;2.48;73.94;99484.69;687797;28;69266;-66
2021/12/24 00:42:24;;;;;;;1032.57;961.80;;;;;;;2.47;74.04;99483.00;689926;28;20671;-66
2021/12/24 00:42:48;;;;;;;1019.25;949.03;;;;;;;2.48;73.90;99483.84;688981;28;22384;-66
2021/12/24 00:43:10;;;;;;;1025.32;954.83;;;;;;;2.48;74.11;99483.84;687418;28;40257;-65
2021/12/24 00:43:31;;;;;;;1029.00;958.38;;;;;;;2.48;73.98;99476.69;688927;28;46625;-66
2021/12/24 00:43:53;;;;;;;1018.53;948.22;;;;;;;2.47;73.95;99475.00;692140;28;22192;-67
2021/12/24 00:44:15;;;;;;;1022.20;951.80;;;;;;;2.47;74.05;99480.34;690897;28;69406;-66
2021/12/24 00:44:36;;;;;;;1030.65;959.90;;;;;;;2.46;73.97;99484.00;692673;28;23016;-66
2021/12/24 00:44:58;;;;;;;1039.47;968.30;;;;;;;2.48;73.88;99486.53;689071;28;46406;-66
2021/12/24 00:45:23;;;;;;;1037.20;966.15;;;;;;;2.47;74.00;99475.00;692715;28;21520;-66
2021/12/24 00:45:45;;;;;;;1034.18;963.20;;;;;;;2.48;73.86;99475.84;686484;28;114933;-66
2021/12/24 00:46:06;;;;;;;1026.82;956.17;;;;;;;2.48;73.86;99476.69;689030;28;45346;-66
2021/12/24 00:46:27;;;;;;;1018.85;948.53;;;;;;;2.48;73.89;99474.03;689844;28;22307;-66
2021/12/24 00:46:49;;;;;;;1024.40;953.75;;;;;;;2.49;74.01;99480.19;688880;28;46282;-67
2021/12/24 00:47:10;;;;;;;1030.88;960.00;;;;;;;2.48;73.69;99474.03;686843;28;45242;-66
2021/12/24 00:47:32;;;;;;;1033.40;962.45;;;;;;;2.51;73.49;99472.88;690151;28;21503;-65
2021/12/24 00:47:54;;;;;;;1036.63;965.35;;;;;;;2.51;73.69;99472.88;688744;28;21535;-66
2021/12/24 00:48:17;;;;;;;1041.50;970.22;;;;;;;2.50;73.68;99480.03;688742;28;47447;-66
2021/12/24 00:48:38;;;;;;;1038.43;967.28;;;;;;;2.50;73.70;99476.53;686956;28;92070;-66
2021/12/24 00:49:01;;;;;;;1028.95;958.17;;;;;;;2.48;73.72;99471.34;689690;28;23457;-65
2021/12/24 00:49:22;;;;;;;1031.55;960.78;;;;;;;2.49;73.88;99469.53;690840;28;46385;-66
2021/12/24 00:49:44;;;;;;;1036.78;965.75;;;;;;;2.49;74.01;99478.38;692300;28;21329;-66
2021/12/24 00:50:09;;;;;;;1027.55;956.90;;;;;;;2.48;74.04;99476.69;691361;28;45228;-67
2021/12/24 00:50:32;;;;;;;1028.03;957.40;;;;;;;2.47;74.27;99476.84;691042;28;56813;-66
2021/12/24 00:51:17;;;;;;;1026.15;955.63;;;;;;;2.47;74.15;99469.66;689280;28;114906;-66
2021/12/24 00:51:55;;;;;;;1030.70;959.85;;;;;;;2.47;74.14;99474.19;688443;28;136399;-66
2021/12/24 00:52:31;;;;;;;1037.07;966.10;;;;;;;2.48;73.99;99473.19;688463;28;135568;-66
2021/12/24 00:52:58;;;;;;;1013.35;943.17;;;;;;;2.48;73.93;99474.03;686392;28;137717;-65
2021/12/24 00:55:22;;;;;;;1041.00;969.85;;;;;;;2.50;73.66;99479.19;687933;28;136055;-66
2021/12/24 00:55:43;;;;;;;1018.17;947.97;;;;;;;2.45;73.71;99463.66;686279;28;115065;-66
2021/12/24 00:56:10;;;;;;;1028.00;957.40;;;;;;;2.49;73.87;99478.38;689676;28;22819;-66
2021/12/24 00:56:31;;;;;;;1036.50;965.63;;;;;;;2.48;73.90;99474.03;687199;28;98785;-66
2021/12/24 00:56:54;;;;;;;1022.75;952.35;;;;;;;2.49;73.83;99475.72;687470;28;21699;-66
2021/12/24 00:57:16;;;;;;;1018.92;948.63;;;;;;;2.49;73.81;99478.38;681831;28;93065;-66
2021/12/24 00:57:38;;;;;;;1013.08;942.92;;;;;;;2.50;73.90;99474.69;685071;28;21551;-66
2021/12/24 00:58:02;;;;;;;1021.97;951.55;;;;;;;2.50;73.61;99477.34;686456;28;88857;-66
2021/12/24 00:58:23;;;;;;;1034.82;963.88;;;;;;;2.53;73.56;99476.22;686961;28;92237;-66
2021/12/24 00:58:44;;;;;;;1037.57;966.55;;;;;;;2.55;73.38;99476.06;687885;28;22366;-66
2021/12/24 00:59:06;;;;;;;1042.25;970.92;;;;;;;2.52;73.68;99466.53;689559;28;21525;-66
2021/12/24 00:59:27;;;;;;;1033.00;962.10;;;;;;;2.56;73.39;99475.91;687204;28;23449;-66
2021/12/24 00:59:49;;;;;;;1021.05;950.63;;;;;;;2.56;73.51;99475.09;687000;28;23509;-66
2021/12/24 01:00:12;;;;;;;1026.95;956.33;;;;;;;2.56;73.44;99473.25;683738;28;46374;-66
2021/12/24 01:00:36;;;;;;;1024.03;953.53;;;;;;;2.56;73.60;99475.09;682547;28;92135;-66
2021/12/24 01:00:58;;;;;;;1012.20;942.13;;;;;;;2.55;73.63;99476.88;685742;28;90686;-66
2021/12/24 01:01:20;;;;;;;1018.20;947.80;;;;;;;2.56;73.62;99475.09;690497;28;33449;-65
2021/12/24 01:01:41;;;;;;;1025.20;954.65;;;;;;;2.55;73.76;99468.06;688631;28;46325;-66
2021/12/24 01:02:04;;;;;;;1027.97;957.28;;;;;;;2.55;73.51;99468.91;688261;28;21540;-67
2021/12/24 01:02:26;;;;;;;1022.28;951.85;;;;;;;2.55;73.61;99470.72;684788;28;67456;-66
2021/12/24 01:02:51;;;;;;;1022.50;952.03;;;;;;;2.56;73.56;99469.75;684647;28;67360;-67
2021/12/24 01:03:12;;;;;;;1042.55;971.50;;;;;;;2.56;73.76;99475.09;684747;28;92071;-67
2021/12/24 01:03:34;;;;;;;1038.35;967.40;;;;;;;2.55;73.70;99474.22;687361;28;47477;-65
2021/12/24 01:03:56;;;;;;;1038.00;967.17;;;;;;;2.55;73.98;99468.91;687024;28;20879;-66
2021/12/24 01:04:19;;;;;;;1043.13;972.63;;;;;;;2.56;73.34;99465.25;687483;28;45218;-67
2021/12/24 01:04:40;;;;;;;1048.65;978.50;;;;;;;2.56;73.53;99469.75;687430;28;44384;-66
2021/12/24 01:05:01;;;;;;;1034.00;964.78;;;;;;;2.55;73.46;99465.41;689615;28;22383;-66
2021/12/24 01:05:25;;;;;;;1031.68;962.78;;;;;;;2.57;73.42;99466.06;686477;28;67456;-67
2021/12/24 01:05:47;;;;;;;1035.40;965.97;;;;;;;2.58;73.42;99473.09;685634;28;69375;-67
2021/12/24 01:06:08;;;;;;;1036.30;966.97;;;;;;;2.58;73.44;99465.91;687796;28;46310;-66
2021/12/24 01:06:29;;;;;;;1032.35;963.30;;;;;;;2.58;73.46;99465.91;689419;28;22384;-65
2021/12/24 01:06:52;;;;;;;1036.80;967.50;;;;;;;2.58;73.57;99467.75;691381;28;1601;-66
2021/12/24 01:07:14;;;;;;;1052.30;981.92;;;;;;;2.59;73.54;99466.78;692286;28;22301;-66
2021/12/24 01:07:36;;;;;;;1039.97;970.10;;;;;;;2.59;73.47;99470.25;693981;28;45129;-67
2021/12/24 01:07:58;;;;;;;1028.65;959.33;;;;;;;2.57;73.72;99458.94;690187;28;45228;-66
2021/12/24 01:08:19;;;;;;;1027.20;958.20;;;;;;;2.59;73.59;99475.59;689647;28;21661;-66
2021/12/24 01:08:40;;;;;;;1030.18;960.92;;;;;;;2.58;73.75;99471.25;688530;28;46300;-66
2021/12/24 01:09:03;;;;;;;1033.00;963.28;;;;;;;2.57;73.57;99464.25;689826;28;23386;-67
2021/12/24 01:09:24;;;;;;;1031.97;962.42;;;;;;;2.61;73.50;99470.09;685113;28;68310;-67
2021/12/24 01:09:45;;;;;;;1029.53;960.20;;;;;;;2.60;73.52;99465.75;687043;28;23186;-66
2021/12/24 01:10:08;;;;;;;1045.75;975.88;;;;;;;2.61;73.38;99465.59;689069;28;23466;-66
2021/12/24 01:10:33;;;;;;;1050.22;979.92;;;;;;;2.62;73.55;99463.78;689036;28;69419;-67
2021/12/24 01:10:56;;;;;;;1037.68;967.97;;;;;;;2.62;73.30;99469.13;685337;28;116021;-66
2021/12/24 01:11:17;;;;;;;1043.88;973.92;;;;;;;2.66;73.28;99467.81;688247;28;67513;-66
2021/12/24 01:11:38;;;;;;;1038.60;968.60;;;;;;;2.64;73.43;99467.13;690977;28;23664;-66
2021/12/24 01:12:01;;;;;;;1043.63;973.63;;;;;;;2.64;73.48;99464.47;689924;28;23471;-66
2021/12/24 01:12:24;;;;;;;1039.13;969.22;;;;;;;2.65;73.35;99471.44;689093;28;69680;-66
2021/12/24 01:12:46;;;;;;;1049.05;978.53;;;;;;;2.66;73.45;99465.97;687565;28;69256;-67
2021/12/24 01:13:08;;;;;;;1036.43;966.63;;;;;;;2.67;73.31;99458.81;687996;28;46222;-66
2021/12/24 01:13:30;;;;;;;1036.47;966.78;;;;;;;2.68;73.26;99464.00;687785;28;45243;-66
2021/12/24 01:13:51;;;;;;;1032.65;962.83;;;;;;;2.67;73.42;99459.66;686507;28;45048;-67
2021/12/24 01:14:12;;;;;;;1036.18;966.17;;;;;;;2.71;73.08;99468.16;689108;28;22399;-66
2021/12/24 01:14:34;;;;;;;1031.35;961.75;;;;;;;2.72;72.99;99461.00;688772;28;46564;-66
2021/12/24 01:14:55;;;;;;;1027.20;957.78;;;;;;;2.72;73.23;99456.50;689535;28;22462;-67
2021/12/24 01:15:18;;;;;;;1023.13;953.50;;;;;;;2.72;73.09;99458.34;689597;28;22533;-66
2021/12/24 01:15:51;;;;;;;1031.38;961.40;;;;;;;2.69;73.44;99456.81;685457;28;69444;-67
2021/12/24 01:16:20;;;;;;;1034.95;965.25;;;;;;;2.72;73.25;99447.69;682775;28;138324;-66
2021/12/24 01:16:48;;;;;;;1031.72;962.10;;;;;;;2.72;73.36;99458.34;683877;28;160821;-66
2021/12/24 01:17:18;;;;;;;1029.55;959.78;;;;;;;2.73;73.35;99462.66;684698;28;137682;-66
2021/12/24 01:17:44;;;;;;;1029.43;959.53;;;;;;;2.74;73.14;99459.84;684476;28;160845;-67
2021/12/24 01:18:12;;;;;;;1041.78;971.63;;;;;;;2.74;73.28;99462.50;689255;28;135717;-67
2021/12/24 01:18:43;;;;;;;1048.18;977.70;;;;;;;2.75;72.96;99455.38;687104;28;136320;-67
2021/12/24 01:19:09;;;;;;;1028.75;958.90;;;;;;;2.75;73.07;99458.03;685650;28;137552;-66
2021/12/24 01:19:30;;;;;;;1038.20;968.00;;;;;;;2.75;72.97;99455.38;688690;28;138094;-66
2021/12/24 01:19:57;;;;;;;1046.22;975.63;;;;;;;2.74;73.07;99457.19;689037;28;45325;-66
2021/12/24 01:20:26;;;;;;;1030.38;960.33;;;;;;;2.74;73.09;99461.69;685552;28;138160;-66
2021/12/24 01:20:52;;;;;;;1028.22;958.25;;;;;;;2.74;73.17;99454.50;684072;28;159090;-66
2021/12/24 01:21:25;;;;;;;1039.05;968.75;;;;;;;2.72;73.24;99455.69;685751;28;138635;-66
2021/12/24 01:22:09;;;;;;;1040.93;970.22;;;;;;;2.73;73.37;99460.00;687352;28;138278;-66
2021/12/24 01:23:10;;;;;;;1041.03;970.38;;;;;;;2.70;73.42;99454.00;685492;28;137324;-66
2021/12/24 01:23:32;;;;;;;1042.78;971.90;;;;;;;2.72;73.35;99453.84;684281;28;156510;-66
2021/12/24 01:23:57;;;;;;;1047.28;976.38;;;;;;;2.71;73.65;99457.50;684815;28;160968;-66
2021/12/24 01:24:22;;;;;;;1054.90;984.15;;;;;;;2.72;73.58;99456.50;684381;28;115228;-66
2021/12/24 01:24:52;;;;;;;1044.57;974.45;;;;;;;2.70;73.69;99450.50;685856;28;115312;-66
2021/12/24 01:25:22;;;;;;;1043.18;972.97;;;;;;;2.69;73.84;99452.31;682972;28;137820;-66
2021/12/24 01:25:48;;;;;;;1042.03;971.78;;;;;;;2.70;73.52;99453.19;680923;28;137832;-66
2021/12/24 01:26:13;;;;;;;1037.68;967.88;;;;;;;2.68;73.73;99450.66;684578;28;116222;-65
2021/12/24 01:26:41;;;;;;;1032.72;963.17;;;;;;;2.70;73.65;99443.34;685828;28;115413;-66
2021/12/24 01:27:15;;;;;;;1041.63;971.58;;;;;;;2.70;73.42;99446.00;685830;28;161806;-67
2021/12/24 01:27:57;;;;;;;1036.30;966.17;;;;;;;2.70;73.59;99446.00;691926;28;61441;-65
2021/12/24 01:29:36;;;;;;;1040.38;970.17;;;;;;;2.72;73.82;99450.34;685359;28;137560;-66
2021/12/24 01:30:06;;;;;;;1035.82;966.05;;;;;;;2.69;74.06;99448.81;682070;28;160763;-66
2021/12/24 01:37:57;;;;;;;1053.40;982.22;;;;;;;2.70;73.81;99451.34;684624;28;160164;-66
2021/12/24 01:38:24;;;;;;;1063.88;992.08;;;;;;;2.72;73.68;99442.34;689208;28;70809;-67
2021/12/24 01:38:57;;;;;;;1056.82;985.28;;;;;;;2.70;73.72;99443.34;683416;28;135047;-66
2021/12/24 01:39:24;;;;;;;1059.85;988.33;;;;;;;2.69;73.91;99446.16;682819;28;137574;-66
2021/12/24 01:39:55;;;;;;;1056.60;985.10;;;;;;;2.71;74.04;99452.16;680233;28;137700;-67
2021/12/24 01:40:24;;;;;;;1052.60;981.35;;;;;;;2.72;74.08;99450.34;679427;28;136639;-67
2021/12/24 01:41:03;;;;;;;1048.25;977.10;;;;;;;2.70;74.21;99450.50;683614;28;137958;-66
2021/12/24 01:42:46;;;;;;;1056.13;985.15;;;;;;;2.68;74.27;99447.16;686425;28;137714;-66
2021/12/24 01:43:07;;;;;;;1060.30;988.92;;;;;;;2.69;74.08;99451.50;687463;28;161908;-67
2021/12/24 01:43:29;;;;;;;1051.70;980.80;;;;;;;2.70;74.00;99454.00;691099;28;46264;-66
2021/12/24 01:43:51;;;;;;;1042.82;972.10;;;;;;;2.70;74.06;99445.19;688991;28;69423;-66
2021/12/24 01:44:12;;;;;;;1041.45;970.67;;;;;;;2.70;74.01;99447.84;691853;28;22242;-66
2021/12/24 01:44:35;;;;;;;1050.40;979.30;;;;;;;2.70;74.02;99453.19;687600;28;23432;-66
2021/12/24 01:45:00;;;;;;;1043.05;972.10;;;;;;;2.70;73.99;99448.66;682770;28;137763;-66
2021/12/24 01:45:23;;;;;;;1043.00;972.08;;;;;;;2.70;74.10;99446.00;686620;28;21517;-66
2021/12/24 01:45:46;;;;;;;1048.05;976.95;;;;;;;2.70;74.09;99443.34;686498;28;69512;-66
2021/12/24 01:46:08;;;;;;;1051.30;980.03;;;;;;;2.69;74.27;99444.31;688048;28;69383;-66
2021/12/24 01:46:30;;;;;;;1041.80;970.90;;;;;;;2.72;74.17;99447.69;688510;28;11040;-66
2021/12/24 01:46:51;;;;;;;1041.25;970.13;;;;;;;2.71;74.22;99446.81;687363;28;46418;-66
2021/12/24 01:47:12;;;;;;;1053.70;982.20;;;;;;;2.70;74.33;99443.34;688435;28;22387;-66
2021/12/24 01:47:33;;;;;;;1051.47;980.25;;;;;;;2.71;74.33;99454.81;685812;28;21294;-66
2021/12/24 01:47:57;;;;;;;1042.78;971.80;;;;;;;2.72;73.91;99442.34;684802;28;23508;-66
2021/12/24 01:48:20;;;;;;;1027.05;956.95;;;;;;;2.72;73.88;99447.69;685716;28;115066;-67
2021/12/24 01:48:42;;;;;;;1038.85;967.90;;;;;;;2.72;74.04;99447.69;688561;28;46364;-66
2021/12/24 01:49:04;;;;;;;1043.80;972.80;;;;;;;2.72;73.98;99445.84;685088;28;69257;-66
2021/12/24 01:49:26;;;;;;;1038.75;968.03;;;;;;;2.71;74.28;99449.50;682260;28;21098;-66
2021/12/24 01:49:47;;;;;;;1032.47;962.08;;;;;;;2.73;74.17;99447.53;681179;28;44421;-66
2021/12/24 01:50:11;;;;;;;1035.03;964.47;;;;;;;2.72;74.23;99445.84;681016;28;69446;-66
2021/12/24 01:50:37;;;;;;;1033.03;962.47;;;;;;;2.73;74.14;99438.66;683271;28;69345;-66
2021/12/24 01:50:58;;;;;;;1029.38;958.97;;;;;;;2.73;74.13;99438.66;683245;28;116031;-66
2021/12/24 01:51:29;;;;;;;1037.03;966.40;;;;;;;2.75;74.10;99436.72;682211;28;136066;-67
2021/12/24 01:51:52;;;;;;;1022.80;952.67;;;;;;;2.74;74.04;99438.50;682201;28;69586;-66
2021/12/24 01:52:24;;;;;;;1027.72;957.65;;;;;;;2.73;74.08;99434.19;683915;28;98423;-66
2021/12/24 01:52:51;;;;;;;1038.78;968.38;;;;;;;2.74;74.16;99429.69;683158;28;138153;-66
2021/12/24 01:53:15;;;;;;;1039.63;969.28;;;;;;;2.75;74.33;99432.19;685674;28;67263;-66
2021/12/24 01:53:40;;;;;;;1039.50;968.95;;;;;;;2.75;74.14;99440.19;683774;28;138039;-66
2021/12/24 01:54:01;;;;;;;1041.63;970.92;;;;;;;2.75;74.24;99437.53;688377;28;46411;-66
2021/12/24 01:54:24;;;;;;;1043.45;972.72;;;;;;;2.75;74.25;99447.38;686275;28;44246;-66
2021/12/24 01:54:46;;;;;;;1039.50;968.88;;;;;;;2.74;74.25;99441.19;685986;28;45317;-66
2021/12/24 01:55:10;;;;;;;1036.38;965.80;;;;;;;2.75;74.22;99434.88;683814;28;46332;-66
2021/12/24 01:55:32;;;;;;;1030.13;959.80;;;;;;;2.75;74.16;99442.88;681705;28;90386;-66
2021/12/24 01:55:54;;;;;;;1035.57;964.88;;;;;;;2.75;73.98;99436.72;681841;28;46333;-66
2021/12/24 01:56:16;;;;;;;1038.65;967.75;;;;;;;2.75;73.99;99440.19;682487;28;69708;-66
2021/12/24 01:56:37;;;;;;;1050.47;979.25;;;;;;;2.75;74.06;99440.19;682128;28;45252;-66
2021/12/24 01:57:00;;;;;;;1047.47;976.38;;;;;;;2.76;74.13;99435.69;684736;28;24343;-66
2021/12/24 01:57:21;;;;;;;1032.70;962.28;;;;;;;2.76;74.04;99441.03;684434;28;46294;-66
2021/12/24 01:57:44;;;;;;;1032.88;962.35;;;;;;;2.77;73.67;99437.38;685400;28;46281;-66
2021/12/24 01:58:05;;;;;;;1043.43;972.47;;;;;;;2.78;73.93;99445.22;685611;28;45347;-67
2021/12/24 01:58:28;;;;;;;1035.95;965.20;;;;;;;2.79;73.93;99438.91;687295;28;21540;-66
2021/12/24 01:58:49;;;;;;;1042.13;971.13;;;;;;;2.78;73.99;99439.88;685195;28;69536;-67
2021/12/24 01:59:10;;;;;;;1043.45;972.38;;;;;;;2.78;73.83;99437.22;686949;28;12770;-66
2021/12/24 01:59:32;;;;;;;1051.03;979.55;;;;;;;2.78;74.11;99436.38;686122;28;22764;-66
2021/12/24 01:59:53;;;;;;;1042.45;971.45;;;;;;;2.78;74.14;99436.38;686450;28;46284;-67
2021/12/24 02:00:18;;;;;;;1034.80;964.10;;;;;;;2.75;74.13;99431.38;686562;28;21530;-66
2021/12/24 02:00:44;;;;;;;1029.82;959.28;;;;;;;2.76;74.18;99439.22;684662;28;115875;-66
2021/12/24 02:01:05;;;;;;;1040.90;970.10;;;;;;;2.76;74.33;99439.22;684038;28;115552;-67
2021/12/24 02:01:27;;;;;;;1047.72;976.53;;;;;;;2.77;74.23;99440.03;686296;28;1512;-66
2021/12/24 02:01:49;;;;;;;1053.82;982.33;;;;;;;2.78;74.06;99437.22;684873;28;69691;-67
2021/12/24 02:02:11;;;;;;;1047.85;976.55;;;;;;;2.78;73.99;99436.38;687140;28;44116;-66
2021/12/24 02:02:32;;;;;;;1041.70;970.70;;;;;;;2.79;74.18;99438.03;689978;28;15564;-67
2021/12/24 02:02:56;;;;;;;1047.15;975.85;;;;;;;2.78;74.06;99434.53;689131;28;22412;-66
2021/12/24 02:03:18;;;;;;;1042.85;971.65;;;;;;;2.78;74.11;99431.88;691106;28;69412;-66
2021/12/24 02:03:39;;;;;;;1043.65;972.42;;;;;;;2.78;74.15;99431.06;691598;28;44375;-66
2021/12/24 02:04:01;;;;;;;1047.15;975.83;;;;;;;2.79;74.08;99436.22;688663;28;23468;-66
2021/12/24 02:04:22;;;;;;;1044.65;973.53;;;;;;;2.79;74.03;99433.56;685859;28;46456;-66
2021/12/24 02:04:43;;;;;;;1044.45;973.33;;;;;;;2.79;73.94;99428.22;685615;28;45255;-66
2021/12/24 02:05:05;;;;;;;1039.30;968.28;;;;;;;2.78;74.26;99423.06;686624;28;20594;-66
2021/12/24 02:05:27;;;;;;;1033.13;962.40;;;;;;;2.81;73.66;99436.06;686504;28;44355;-66
2021/12/24 02:05:49;;;;;;;1030.63;960.03;;;;;;;2.82;73.52;99430.59;688979;28;44324;-66
2021/12/24 02:06:10;;;;;;;1032.55;961.97;;;;;;;2.81;73.86;99431.56;690417;28;45336;-66
2021/12/24 02:06:31;;;;;;;1045.97;974.67;;;;;;;2.82;73.71;99427.06;689106;28;23423;-67
2021/12/24 02:06:53;;;;;;;1045.30;973.97;;;;;;;2.82;73.80;99429.72;686519;28;21512;-66
2021/12/24 02:07:15;;;;;;;1044.40;973.20;;;;;;;2.82;73.88;99429.72;685466;28;69288;-66
2021/12/24 02:07:36;;;;;;;1042.45;971.45;;;;;;;2.82;73.69;99427.91;685752;28;44396;-67
2021/12/24 02:07:58;;;;;;;1048.65;977.28;;;;;;;2.83;73.92;99434.06;686585;28;21533;-66
2021/12/24 02:08:20;;;;;;;1051.78;980.22;;;;;;;2.82;73.84;99427.91;688616;28;46312;-66
2021/12/24 02:08:43;;;;;;;1054.55;982.75;;;;;;;2.82;73.89;99427.06;685900;28;69372;-66
2021/12/24 02:09:04;;;;;;;1051.90;980.35;;;;;;;2.83;74.04;99426.06;689886;28;21497;-66
2021/12/24 02:09:26;;;;;;;1053.10;981.67;;;;;;;2.84;73.88;99427.75;687811;28;60771;-66
2021/12/24 02:09:48;;;;;;;1042.32;971.42;;;;;;;2.84;73.78;99425.09;689468;28;22396;-66
2021/12/24 02:10:12;;;;;;;1047.20;975.95;;;;;;;2.84;73.82;99422.41;688300;28;45161;-66
2021/12/24 02:10:34;;;;;;;1053.03;981.63;;;;;;;2.84;73.92;99428.59;688676;28;67476;-66
2021/12/24 02:10:55;;;;;;;1033.97;963.50;;;;;;;2.83;73.89;99418.06;689089;28;20466;-66
2021/12/24 02:11:18;;;;;;;1036.22;965.60;;;;;;;2.84;73.64;99411.75;689739;28;44358;-66
2021/12/24 02:11:40;;;;;;;1038.97;968.10;;;;;;;2.85;73.95;99424.06;688987;28;44359;-67
2021/12/24 02:12:05;;;;;;;1041.55;970.58;;;;;;;2.86;73.80;99423.91;685852;28;45255;-67
2021/12/24 02:12:27;;;;;;;1042.07;971.28;;;;;;;2.86;73.91;99421.25;682917;28;138958;-66
2021/12/24 02:12:52;;;;;;;1041.75;971.00;;;;;;;2.87;74.01;99427.44;686513;28;46249;-66
2021/12/24 02:13:14;;;;;;;1047.70;976.65;;;;;;;2.85;73.98;99419.59;684295;28;114626;-66
2021/12/24 02:13:39;;;;;;;1053.13;981.88;;;;;;;2.86;73.97;99423.09;682568;28;138743;-67
2021/12/24 02:14:09;;;;;;;1035.38;964.67;;;;;;;2.85;74.09;99418.75;683248;28;136408;-67